createdAt,value
2023-05-05T00:00:32.501Z,14.14
2023-05-05T00:03:03.049Z,14.12
2023-05-05T00:05:33.125Z,14.11
2023-05-05T00:08:03.602Z,14.05
2023-05-05T00:10:34.055Z,14.05
2023-05-05T00:13:04.243Z,14.04
2023-05-05T00:15:34.946Z,14.06
2023-05-05T00:18:05.410Z,14.08
2023-05-05T00:20:35.580Z,14.08
2023-05-05T00:23:05.936Z,14.05
2023-05-05T00:25:36.110Z,14.06
2023-05-05T00:28:06.593Z,14.03
2023-05-05T00:30:37.049Z,14.02
2023-05-05T00:33:07.516Z,13.98
2023-05-05T00:35:37.967Z,13.94
2023-05-05T00:38:08.726Z,13.91
2023-05-05T00:40:38.910Z,13.89
2023-05-05T00:43:09.068Z,13.91
2023-05-05T00:45:39.566Z,13.88
2023-05-05T00:48:09.687Z,13.85
2023-05-05T00:50:39.858Z,13.83
2023-05-05T00:53:10.318Z,13.80
2023-05-05T00:55:40.446Z,13.76
2023-05-05T00:58:10.733Z,13.73
2023-05-05T01:00:41.492Z,13.70
2023-05-05T01:03:11.880Z,13.70
2023-05-05T01:05:42.010Z,13.68
2023-05-05T01:08:12.174Z,13.69
2023-05-05T01:10:42.405Z,13.64
2023-05-05T01:13:12.583Z,13.67
2023-05-05T01:15:42.700Z,13.69
2023-05-05T01:18:13.361Z,13.69
2023-05-05T01:20:43.767Z,13.68
2023-05-05T01:23:14.210Z,13.70
2023-05-05T01:25:44.678Z,13.69
2023-05-05T01:28:14.830Z,13.67
2023-05-05T01:30:45.067Z,13.65
2023-05-05T01:33:15.564Z,13.66
2023-05-05T01:35:46.344Z,13.67
2023-05-05T01:38:16.991Z,13.65
2023-05-05T01:40:47.435Z,13.61
2023-05-05T01:43:18.019Z,13.63
2023-05-05T01:45:48.241Z,13.65
2023-05-05T01:48:18.744Z,13.66
2023-05-05T01:50:49.063Z,13.66
2023-05-05T01:53:19.626Z,13.67
2023-05-05T01:55:50.087Z,13.68
2023-05-05T01:58:20.243Z,13.69
2023-05-05T02:00:51.003Z,13.68
2023-05-05T02:03:21.568Z,13.69
2023-05-05T02:05:51.675Z,13.66
2023-05-05T02:08:22.154Z,13.65
2023-05-05T02:10:52.662Z,13.63
2023-05-05T02:13:23.149Z,13.61
2023-05-05T02:15:53.824Z,13.57
2023-05-05T02:18:23.978Z,13.57
2023-05-05T02:20:54.421Z,13.55
2023-05-05T02:23:24.904Z,13.54
2023-05-05T02:25:55.114Z,13.55
2023-05-05T02:28:25.555Z,13.55
2023-05-05T02:30:55.684Z,13.55
2023-05-05T02:33:26.165Z,13.55
2023-05-05T02:35:56.601Z,13.53
2023-05-05T02:38:27.078Z,13.52
2023-05-05T02:40:57.265Z,13.51
2023-05-05T02:43:27.802Z,13.48
2023-05-05T02:45:58.227Z,13.40
2023-05-05T02:48:28.412Z,13.40
2023-05-05T02:50:58.852Z,13.35
2023-05-05T02:53:29.605Z,13.32
2023-05-05T02:56:00.464Z,13.27
2023-05-05T02:58:30.842Z,13.23
2023-05-05T03:01:01.410Z,13.24
2023-05-05T03:03:31.941Z,13.23
2023-05-05T03:06:02.552Z,13.22
2023-05-05T03:08:33.272Z,13.22
2023-05-05T03:11:03.495Z,13.19
2023-05-05T03:13:33.639Z,13.18
2023-05-05T03:16:03.905Z,13.17
2023-05-05T03:18:34.681Z,13.18
2023-05-05T03:21:05.132Z,13.18
2023-05-05T03:23:35.960Z,13.18
2023-05-05T03:26:06.356Z,13.18
2023-05-05T03:28:37.144Z,13.17
2023-05-05T03:31:07.635Z,13.14
2023-05-05T03:33:38.128Z,13.15
2023-05-05T03:36:08.888Z,13.18
2023-05-05T03:38:39.400Z,13.17
2023-05-05T03:41:09.873Z,13.15
2023-05-05T03:43:40.510Z,13.14
2023-05-05T03:46:11.052Z,13.13
2023-05-05T03:48:41.368Z,13.15
2023-05-05T03:51:11.511Z,13.18
2023-05-05T03:53:42.033Z,13.19
2023-05-05T03:56:12.539Z,13.17
2023-05-05T03:58:42.744Z,13.15
2023-05-05T04:01:12.830Z,13.10
2023-05-05T04:03:43.579Z,13.04
2023-05-05T04:06:13.925Z,12.95
2023-05-05T04:08:44.162Z,12.86
2023-05-05T04:11:14.602Z,12.81
2023-05-05T04:13:45.132Z,12.78
2023-05-05T04:16:15.872Z,12.74
2023-05-05T04:18:46.693Z,12.75
2023-05-05T04:21:17.112Z,12.79
2023-05-05T04:23:47.749Z,12.85
2023-05-05T04:26:18.570Z,12.89
2023-05-05T04:28:48.690Z,12.93
2023-05-05T04:31:18.956Z,12.96
2023-05-05T04:33:49.358Z,12.98
2023-05-05T04:36:20.210Z,12.98
2023-05-05T04:38:50.631Z,12.99
2023-05-05T04:41:21.154Z,13.01
2023-05-05T04:43:51.356Z,13.05
2023-05-05T04:46:22.240Z,12.98
2023-05-05T04:48:52.856Z,12.76
2023-05-05T04:51:23.254Z,12.46
2023-05-05T04:53:53.451Z,12.17
2023-05-05T04:56:23.692Z,12.08
2023-05-05T04:58:54.286Z,12.00
2023-05-05T05:01:24.869Z,11.91
2023-05-05T05:03:55.900Z,11.88
2023-05-05T05:06:26.195Z,11.82
2023-05-05T05:08:56.758Z,11.81
2023-05-05T05:11:26.935Z,11.80
2023-05-05T05:13:57.328Z,11.67
2023-05-05T05:16:27.480Z,11.68
2023-05-05T05:18:59.591Z,11.66
2023-05-05T05:21:28.311Z,11.52
2023-05-05T05:23:58.952Z,11.37
2023-05-05T05:26:29.426Z,11.37
2023-05-05T05:28:59.685Z,11.44
2023-05-05T05:31:30.578Z,11.50
2023-05-05T05:34:00.441Z,11.49
2023-05-05T05:36:31.216Z,11.51
2023-05-05T05:39:01.773Z,11.53
2023-05-05T05:41:32.043Z,11.59
2023-05-05T05:44:02.964Z,11.61
2023-05-05T05:46:33.535Z,11.64
2023-05-05T05:49:04.144Z,11.71
2023-05-05T05:51:34.228Z,11.81
2023-05-05T05:54:04.445Z,11.89
2023-05-05T05:56:35.262Z,11.96
2023-05-05T05:59:06.101Z,12.07
2023-05-05T06:01:36.652Z,12.18
2023-05-05T06:04:06.959Z,12.26
2023-05-05T06:06:37.052Z,12.35
2023-05-05T06:09:07.483Z,12.42
2023-05-05T06:11:38.093Z,12.49
2023-05-05T06:14:08.863Z,12.52
2023-05-05T06:16:39.506Z,12.55
2023-05-05T06:19:10.058Z,12.60
2023-05-05T06:21:40.320Z,12.66
2023-05-05T06:24:11.249Z,12.74
2023-05-05T06:26:41.476Z,12.79
2023-05-05T06:29:12.398Z,12.85
2023-05-05T06:31:42.125Z,12.85
2023-05-05T06:34:12.352Z,12.89
2023-05-05T06:36:42.618Z,12.94
2023-05-05T06:39:15.846Z,12.97
2023-05-05T06:41:43.155Z,13.03
2023-05-05T06:44:13.280Z,13.09
2023-05-05T06:46:43.979Z,13.11
2023-05-05T06:49:14.372Z,13.13
2023-05-05T06:51:44.601Z,13.17
2023-05-05T06:54:15.435Z,13.20
2023-05-05T06:56:45.784Z,13.21
2023-05-05T06:59:16.585Z,13.23
2023-05-05T07:01:46.985Z,13.20
2023-05-05T07:04:17.669Z,13.21
2023-05-05T07:06:48.059Z,13.27
2023-05-05T07:09:18.315Z,13.34
2023-05-05T07:11:48.452Z,13.37
2023-05-05T07:14:20.101Z,13.41
2023-05-05T07:16:49.808Z,13.45
2023-05-05T07:19:20.328Z,13.47
2023-05-05T07:21:51.070Z,13.51
2023-05-05T07:24:21.491Z,13.59
2023-05-05T07:26:52.015Z,13.65
2023-05-05T07:29:22.564Z,13.70
2023-05-05T07:31:52.739Z,13.80
2023-05-05T07:34:23.397Z,13.87
2023-05-05T07:36:53.482Z,13.97
2023-05-05T07:39:24.137Z,14.02
2023-05-05T07:41:54.267Z,14.09
2023-05-05T07:44:24.773Z,14.09
2023-05-05T07:46:54.919Z,14.12
2023-05-05T07:49:25.394Z,14.20
2023-05-05T07:51:55.587Z,14.32
2023-05-05T07:54:25.801Z,14.41
2023-05-05T07:56:56.010Z,14.44
2023-05-05T07:59:26.159Z,14.50
2023-05-05T08:01:56.352Z,14.60
2023-05-05T08:04:26.933Z,14.68
2023-05-05T08:06:57.215Z,14.78
2023-05-05T08:09:27.639Z,14.84
2023-05-05T08:11:58.042Z,14.92
2023-05-05T08:14:28.590Z,14.99
2023-05-05T08:16:58.713Z,15.04
2023-05-05T08:19:29.688Z,15.12
2023-05-05T08:22:01.239Z,15.19
2023-05-05T08:24:29.584Z,15.23
2023-05-05T08:27:00.252Z,15.27
2023-05-05T08:29:31.015Z,15.38
2023-05-05T08:32:01.833Z,15.47
2023-05-05T08:34:32.549Z,15.57
2023-05-05T08:37:02.687Z,15.59
2023-05-05T08:39:32.964Z,15.71
2023-05-05T08:42:03.611Z,15.80
2023-05-05T08:44:34.236Z,15.91
2023-05-05T08:47:05.271Z,16.03
2023-05-05T08:49:35.696Z,16.09
2023-05-05T08:52:06.370Z,16.09
2023-05-05T08:54:37.034Z,15.98
2023-05-05T08:57:07.814Z,16.02
2023-05-05T08:59:37.799Z,16.02
2023-05-05T09:02:08.349Z,16.11
2023-05-05T09:04:38.988Z,16.20
2023-05-05T09:07:09.435Z,16.36
2023-05-05T09:09:39.848Z,16.38
2023-05-05T09:12:09.991Z,16.53
2023-05-05T09:14:40.379Z,16.53
2023-05-05T09:17:10.547Z,16.67
2023-05-05T09:19:41.126Z,16.84
2023-05-05T09:22:11.515Z,16.95
2023-05-05T09:24:41.984Z,17.05
2023-05-05T09:27:12.366Z,17.20
2023-05-05T09:29:43.053Z,17.23
2023-05-05T09:32:13.165Z,17.42
2023-05-05T09:34:43.709Z,17.58
2023-05-05T09:37:13.933Z,17.73
2023-05-05T09:39:44.208Z,17.88
2023-05-05T09:42:14.864Z,18.03
2023-05-05T09:44:44.984Z,18.19
2023-05-05T09:47:29.056Z,18.25
2023-05-05T09:49:45.375Z,18.22
2023-05-05T09:52:15.490Z,18.27
2023-05-05T09:54:45.546Z,18.41
2023-05-05T09:57:15.639Z,18.58
2023-05-05T09:59:46.187Z,18.78
2023-05-05T10:02:16.567Z,18.98
2023-05-05T10:04:47.202Z,19.14
2023-05-05T10:07:17.784Z,19.23
2023-05-05T10:09:48.448Z,19.43
2023-05-05T10:12:18.965Z,19.64
2023-05-05T10:14:49.728Z,19.83
2023-05-05T10:17:19.824Z,20.11
2023-05-05T10:19:50.255Z,20.43
2023-05-05T10:22:21.004Z,20.70
2023-05-05T10:24:51.218Z,20.89
2023-05-05T10:27:21.472Z,20.80
2023-05-05T10:29:52.312Z,21.00
2023-05-05T10:32:51.126Z,21.20
2023-05-05T10:34:52.935Z,21.27
2023-05-05T10:37:23.758Z,21.39
2023-05-05T10:39:53.983Z,21.49
2023-05-05T10:42:23.956Z,21.49
2023-05-05T10:44:54.475Z,21.49
2023-05-05T10:47:24.772Z,21.43
2023-05-05T10:49:55.268Z,21.24
2023-05-05T10:52:25.603Z,21.14
2023-05-05T10:54:56.351Z,20.87
2023-05-05T10:57:26.603Z,21.19
2023-05-05T10:59:57.145Z,21.37
2023-05-05T11:02:27.715Z,21.62
2023-05-05T11:04:57.915Z,21.94
2023-05-05T11:07:28.137Z,21.98
2023-05-05T11:09:58.670Z,21.98
2023-05-05T11:12:28.898Z,22.01
2023-05-05T11:14:59.547Z,22.08
2023-05-05T11:17:29.839Z,22.14
2023-05-05T11:19:59.730Z,22.16
2023-05-05T11:22:30.616Z,22.10
2023-05-05T11:25:00.843Z,21.93
2023-05-05T11:27:31.175Z,21.76
2023-05-05T11:30:01.545Z,21.73
2023-05-05T11:32:31.669Z,21.67
2023-05-05T11:35:02.095Z,21.59
2023-05-05T11:37:32.166Z,21.59
2023-05-05T11:40:02.862Z,21.54
2023-05-05T11:42:33.128Z,21.42
2023-05-05T11:45:03.909Z,21.35
2023-05-05T11:47:34.770Z,21.38
2023-05-05T11:50:05.290Z,21.39
2023-05-05T11:52:35.515Z,21.41
2023-05-05T11:55:05.696Z,21.36
2023-05-05T11:57:35.947Z,21.36
2023-05-05T12:00:06.953Z,21.41
2023-05-05T12:02:37.037Z,21.46
2023-05-05T12:05:07.270Z,21.39
2023-05-05T12:07:38.263Z,21.36
2023-05-05T12:10:08.633Z,21.29
2023-05-05T12:12:39.135Z,21.24
2023-05-05T12:15:10.088Z,21.10
2023-05-05T12:17:40.042Z,20.94
2023-05-05T12:20:10.652Z,20.81
2023-05-05T12:22:40.527Z,20.84
2023-05-05T12:25:10.784Z,20.79
2023-05-05T12:27:41.663Z,20.62
2023-05-05T12:30:12.429Z,20.64
2023-05-05T12:32:42.752Z,20.70
2023-05-05T12:35:13.400Z,20.78
2023-05-05T12:37:44.120Z,20.89
2023-05-05T12:40:14.935Z,21.02
2023-05-05T12:42:46.391Z,21.12
2023-05-05T12:45:16.452Z,21.14
2023-05-05T12:47:46.723Z,21.18
2023-05-05T12:50:17.146Z,21.23
2023-05-05T12:52:47.414Z,21.31
2023-05-05T12:55:18.186Z,21.34
2023-05-05T12:57:48.467Z,21.35
2023-05-05T13:00:18.650Z,21.43
2023-05-05T13:02:49.526Z,21.39
2023-05-05T13:05:19.674Z,21.29
2023-05-05T13:07:50.089Z,21.12
2023-05-05T13:10:20.341Z,21.02
2023-05-05T13:12:50.689Z,20.90
2023-05-05T13:15:21.265Z,20.63
2023-05-05T13:17:56.532Z,20.18
2023-05-05T13:20:21.661Z,20.28
2023-05-05T13:27:52.717Z,19.00
2023-05-05T13:30:22.986Z,18.16
2023-05-05T13:32:53.031Z,17.05
2023-05-05T13:35:23.324Z,16.61
2023-05-05T13:37:53.688Z,15.89
2023-05-05T13:40:25.733Z,15.69
2023-05-05T13:42:54.444Z,15.60
2023-05-05T13:45:24.788Z,15.72
2023-05-05T13:47:54.938Z,15.78
2023-05-05T13:50:25.337Z,15.90
2023-05-05T13:52:55.702Z,15.95
2023-05-05T13:55:26.079Z,15.72
2023-05-05T13:57:56.503Z,15.65
2023-05-05T14:00:26.926Z,15.46
2023-05-05T14:02:57.324Z,15.31
2023-05-05T14:05:27.687Z,15.28
2023-05-05T14:07:58.073Z,14.95
2023-05-05T14:10:28.527Z,15.03
2023-05-05T14:12:58.929Z,14.78
2023-05-05T14:15:29.272Z,14.70
2023-05-05T14:17:59.700Z,14.61
2023-05-05T14:20:30.147Z,14.55
2023-05-05T14:23:00.505Z,14.35
2023-05-05T14:25:30.992Z,14.10
2023-05-05T14:28:01.353Z,13.77
2023-05-05T14:30:31.761Z,13.64
2023-05-05T14:33:02.244Z,13.38
2023-05-05T14:35:32.647Z,13.44
2023-05-05T14:38:03.119Z,13.13
2023-05-05T14:40:33.665Z,13.17
2023-05-05T14:43:04.035Z,13.09
2023-05-05T14:45:34.466Z,13.14
2023-05-05T14:48:05.053Z,13.27
2023-05-05T14:50:35.375Z,13.31
2023-05-05T14:53:05.852Z,13.31
2023-05-05T14:55:36.338Z,13.16
2023-05-05T14:58:06.783Z,13.05
2023-05-05T15:00:37.241Z,13.14
2023-05-05T15:03:07.834Z,13.09
2023-05-05T15:05:38.193Z,13.13
2023-05-05T15:08:08.700Z,13.23
2023-05-05T15:10:39.191Z,13.23
2023-05-05T15:13:09.834Z,12.97
2023-05-05T15:15:40.299Z,13.15
2023-05-05T15:18:10.671Z,13.22
2023-05-05T15:20:41.164Z,13.32
2023-05-05T15:23:11.738Z,13.45
2023-05-05T15:25:42.103Z,13.53
2023-05-05T15:28:12.582Z,13.62
2023-05-05T15:30:43.027Z,13.70
2023-05-05T15:33:13.474Z,13.80
2023-05-05T15:35:43.921Z,13.83
2023-05-05T15:38:14.391Z,13.89
2023-05-05T15:40:44.929Z,13.99
2023-05-05T15:43:15.337Z,13.93
2023-05-05T15:45:45.770Z,13.98
2023-05-05T15:48:16.213Z,14.01
2023-05-05T15:50:46.756Z,14.10
2023-05-05T15:53:17.165Z,13.95
2023-05-05T15:55:47.709Z,14.00
2023-05-05T15:58:18.150Z,13.95
2023-05-05T16:00:48.508Z,13.98
2023-05-05T16:03:19.077Z,13.95
2023-05-05T16:05:49.347Z,14.05
2023-05-05T16:08:19.835Z,14.16
2023-05-05T16:10:50.268Z,14.30
2023-05-05T16:13:20.892Z,14.38
2023-05-05T16:15:51.108Z,14.43
2023-05-05T16:18:21.547Z,14.46
2023-05-05T16:20:52.060Z,14.47
2023-05-05T16:23:22.374Z,14.55
2023-05-05T16:25:52.829Z,14.62
2023-05-05T16:28:23.210Z,14.66
2023-05-05T16:30:53.574Z,14.67
2023-05-05T16:33:24.193Z,14.72
2023-05-05T16:35:54.364Z,14.76
2023-05-05T16:38:24.837Z,14.79
2023-05-05T16:40:55.260Z,14.84
2023-05-05T16:43:25.686Z,14.81
2023-05-05T16:45:55.984Z,14.80
2023-05-05T16:48:26.338Z,14.70
2023-05-05T16:50:56.712Z,14.65
2023-05-05T16:53:27.210Z,14.58
2023-05-05T16:55:57.563Z,14.59
2023-05-05T16:58:28.224Z,14.53
2023-05-05T17:03:28.808Z,14.41
2023-05-05T17:05:59.184Z,14.41
2023-05-05T17:08:29.577Z,14.42
2023-05-05T17:10:59.958Z,14.51
2023-05-05T17:13:30.402Z,14.58
2023-05-05T17:16:00.766Z,14.59
2023-05-05T17:18:31.173Z,14.67
2023-05-05T17:21:01.622Z,14.79
2023-05-05T17:23:31.967Z,14.95
2023-05-05T17:26:02.314Z,14.95
2023-05-05T17:28:32.737Z,15.03
2023-05-05T17:31:03.083Z,15.01
2023-05-05T17:33:33.462Z,15.03
2023-05-05T17:36:03.832Z,15.16
2023-05-05T17:38:34.216Z,15.27
2023-05-05T17:41:04.625Z,15.33
2023-05-05T17:43:34.967Z,15.40
2023-05-05T17:46:05.333Z,15.33
2023-05-05T17:48:35.697Z,15.34
2023-05-05T17:51:06.034Z,15.31
2023-05-05T17:53:36.415Z,15.25
2023-05-05T17:56:08.871Z,15.14
2023-05-05T17:58:37.172Z,15.11
2023-05-05T18:01:07.572Z,15.12
2023-05-05T18:03:40.683Z,14.97
2023-05-05T18:06:08.270Z,15.01
2023-05-05T18:08:38.756Z,15.10
2023-05-05T18:11:09.034Z,15.19
2023-05-05T18:13:39.484Z,15.26
2023-05-05T18:16:09.848Z,15.29
2023-05-05T18:18:40.306Z,15.34
2023-05-05T18:21:10.565Z,15.37
2023-05-05T18:23:40.959Z,15.40
2023-05-05T18:26:11.335Z,15.41
2023-05-05T18:28:41.718Z,15.42
2023-05-05T18:33:42.453Z,15.35
2023-05-05T18:36:12.825Z,15.32
2023-05-05T18:38:43.201Z,15.29
2023-05-05T18:41:13.624Z,15.27
2023-05-05T18:43:43.980Z,15.24
2023-05-05T18:46:14.365Z,15.20
2023-05-05T18:48:44.734Z,15.16
2023-05-05T18:51:15.081Z,15.14
2023-05-05T18:53:45.466Z,15.11
2023-05-05T18:56:15.860Z,15.06
2023-05-05T18:58:46.269Z,15.02
2023-05-05T19:01:16.686Z,14.98
2023-05-05T19:03:47.035Z,14.94
2023-05-05T19:06:17.407Z,14.93
2023-05-05T19:08:47.802Z,14.94
2023-05-05T19:11:18.244Z,14.95
2023-05-05T19:13:48.585Z,14.93
2023-05-05T19:16:19.000Z,14.91
2023-05-05T19:18:49.357Z,14.88
2023-05-05T19:21:19.737Z,14.87
2023-05-05T19:23:50.149Z,14.83
2023-05-05T19:26:20.675Z,14.77
2023-05-05T19:28:50.956Z,14.73
2023-05-05T19:31:21.353Z,14.69
2023-05-05T19:33:51.743Z,14.66
2023-05-05T19:36:21.776Z,14.61
2023-05-05T19:38:52.179Z,14.56
2023-05-05T19:41:22.599Z,14.51
2023-05-05T19:43:53.020Z,14.47
2023-05-05T19:46:23.461Z,14.44
2023-05-05T19:48:53.820Z,14.38
2023-05-05T19:51:24.224Z,14.32
2023-05-05T19:53:54.621Z,14.27
2023-05-05T19:56:25.115Z,14.23
2023-05-05T19:58:55.481Z,14.21
2023-05-05T20:01:25.946Z,14.19
2023-05-05T20:03:56.593Z,14.18
2023-05-05T20:06:26.693Z,14.15
2023-05-05T20:08:57.129Z,14.13
2023-05-05T20:11:27.519Z,14.11
2023-05-05T20:13:57.994Z,14.09
2023-05-05T20:16:28.486Z,14.07
2023-05-05T20:18:58.841Z,14.01
2023-05-05T20:21:29.286Z,13.97
2023-05-05T20:23:59.821Z,13.94
2023-05-05T20:26:30.227Z,13.90
2023-05-05T20:29:00.706Z,13.84
2023-05-05T20:31:31.255Z,13.77
2023-05-05T20:34:01.587Z,13.71
2023-05-05T20:36:32.136Z,13.67
2023-05-05T20:39:02.501Z,13.65
2023-05-05T20:41:32.932Z,13.64
2023-05-05T20:44:03.422Z,13.64
2023-05-05T20:46:33.888Z,13.64
2023-05-05T20:49:04.327Z,13.63
2023-05-05T20:51:34.816Z,13.62
2023-05-05T20:54:05.425Z,13.61
2023-05-05T20:56:35.773Z,13.60
2023-05-05T20:59:06.180Z,13.57
2023-05-05T21:01:36.856Z,13.53
2023-05-05T21:04:07.164Z,13.49
2023-05-05T21:06:37.567Z,13.46
2023-05-05T21:09:08.063Z,13.44
2023-05-05T21:11:38.536Z,13.39
2023-05-05T21:14:09.083Z,13.37
2023-05-05T21:16:39.508Z,13.34
2023-05-05T21:19:09.949Z,13.31
2023-05-05T21:21:40.405Z,13.28
2023-05-05T21:24:10.888Z,13.25
2023-05-05T21:26:41.354Z,13.24
2023-05-05T21:29:11.942Z,13.23
2023-05-05T21:31:42.402Z,13.18
2023-05-05T21:34:12.869Z,13.13
2023-05-05T21:36:43.428Z,13.09
2023-05-05T21:39:13.899Z,13.06
2023-05-05T21:41:44.408Z,13.05
2023-05-05T21:44:15.004Z,13.04
2023-05-05T21:46:45.656Z,13.03
2023-05-05T21:49:16.137Z,13.00
2023-05-05T21:51:46.440Z,12.98
2023-05-05T21:54:16.715Z,12.95
2023-05-05T21:56:47.254Z,12.90
2023-05-05T21:59:17.910Z,12.85
2023-05-05T22:01:48.149Z,12.78
2023-05-05T22:04:18.182Z,12.74
2023-05-05T22:06:48.449Z,12.71
2023-05-05T22:09:18.505Z,12.68
2023-05-05T22:11:49.004Z,12.69
2023-05-05T22:14:19.884Z,12.68
2023-05-05T22:16:50.480Z,12.67
2023-05-05T22:19:21.248Z,12.66
2023-05-05T22:21:51.730Z,12.64
2023-05-05T22:24:22.253Z,12.62
2023-05-05T22:26:52.891Z,12.58
2023-05-05T22:29:23.482Z,12.53
2023-05-05T22:31:54.073Z,12.49
2023-05-05T22:34:24.372Z,12.45
2023-05-05T22:36:54.701Z,12.44
2023-05-05T22:39:25.397Z,12.42
2023-05-05T22:41:55.678Z,12.40
2023-05-05T22:44:25.989Z,12.35
2023-05-05T22:46:56.610Z,12.33
2023-05-05T22:49:27.055Z,12.32
2023-05-05T22:51:57.647Z,12.30
2023-05-05T22:54:28.065Z,12.27
2023-05-05T22:56:58.845Z,12.25
2023-05-05T22:59:29.185Z,12.24
2023-05-05T23:01:59.287Z,12.23
2023-05-05T23:04:30.162Z,12.21
2023-05-05T23:07:00.867Z,12.18
2023-05-05T23:09:31.688Z,12.15
2023-05-05T23:12:01.810Z,12.09
2023-05-05T23:14:32.117Z,12.04
2023-05-05T23:17:02.898Z,11.99
2023-05-05T23:19:33.656Z,11.97
2023-05-05T23:22:04.554Z,11.96
2023-05-05T23:24:35.236Z,11.94
2023-05-05T23:27:05.812Z,11.94
2023-05-05T23:29:36.457Z,11.94
2023-05-05T23:32:06.562Z,11.92
2023-05-05T23:34:37.209Z,11.90
2023-05-05T23:37:07.486Z,11.86
2023-05-05T23:39:38.082Z,11.82
2023-05-05T23:42:08.585Z,11.79
2023-05-05T23:44:39.339Z,11.77
2023-05-05T23:47:10.103Z,11.75
2023-05-05T23:49:40.743Z,11.74
2023-05-05T23:52:10.754Z,11.72
2023-05-05T23:54:41.000Z,11.71
2023-05-05T23:57:11.785Z,11.70
2023-05-05T23:59:42.648Z,11.68
